createdAt,value
2019-05-14T00:02:12.279Z,37.85
2019-05-14T00:07:13.432Z,37.85
2019-05-14T00:12:15.883Z,37.94
2019-05-14T00:17:18.329Z,38.03
2019-05-14T00:22:21.833Z,38.03
2019-05-14T00:27:23.226Z,38.01
2019-05-14T00:32:25.694Z,38.04
2019-05-14T00:37:28.142Z,38.85
2019-05-14T00:42:31.907Z,38.95
2019-05-14T00:47:33.047Z,39.30
2019-05-14T00:52:35.501Z,39.64
2019-05-14T00:57:37.956Z,39.64
2019-05-14T01:02:41.565Z,40.12
2019-05-14T01:07:42.870Z,41.80
2019-05-14T01:12:45.333Z,43.50
2019-05-14T01:17:47.786Z,44.56
2019-05-14T01:22:51.650Z,45.77
2019-05-14T01:27:52.712Z,46.30
2019-05-14T01:32:55.163Z,47.00
2019-05-14T01:37:57.621Z,48.72
2019-05-14T01:43:02.392Z,50.57
2019-05-14T01:48:02.549Z,51.51
2019-05-14T01:53:05.011Z,51.88
2019-05-14T01:58:07.471Z,52.11
2019-05-14T02:03:11.965Z,52.33
2019-05-14T02:08:12.402Z,52.69
2019-05-14T02:13:14.862Z,53.17
2019-05-14T02:18:17.319Z,53.18
2019-05-14T02:23:19.775Z,53.66
2019-05-14T02:28:22.314Z,53.67
2019-05-14T02:33:24.702Z,54.22
2019-05-14T02:38:30.030Z,54.55
2019-05-14T02:43:29.745Z,54.87
2019-05-14T02:48:32.090Z,55.27
2019-05-14T02:53:34.554Z,55.96
2019-05-14T02:58:40.007Z,55.91
2019-05-14T03:03:40.423Z,56.56
2019-05-14T03:08:42.045Z,57.27
2019-05-14T03:13:44.476Z,57.67
2019-05-14T03:18:49.924Z,58.11
2019-05-14T03:23:50.072Z,58.06
2019-05-14T03:28:52.537Z,57.93
2019-05-14T03:33:55.027Z,58.12
2019-05-14T03:38:59.336Z,58.03
2019-05-14T03:44:00.323Z,58.21
2019-05-14T03:49:02.388Z,57.76
2019-05-14T03:54:07.885Z,57.09
2019-05-14T03:59:09.599Z,56.35
2019-05-14T04:04:10.324Z,55.78
2019-05-14T04:09:12.233Z,55.12
2019-05-14T04:14:14.700Z,54.19
2019-05-14T04:19:19.008Z,54.00
2019-05-14T04:24:20.155Z,53.51
2019-05-14T04:29:22.118Z,53.36
2019-05-14T04:34:24.586Z,53.48
2019-05-14T04:39:30.442Z,52.91
2019-05-14T04:44:29.960Z,52.49
2019-05-14T04:49:31.988Z,52.61
2019-05-14T04:54:34.443Z,52.23
2019-05-14T04:59:39.692Z,52.78
2019-05-14T05:04:41.241Z,52.56
2019-05-14T05:09:41.863Z,52.20
2019-05-14T05:14:44.325Z,51.91
2019-05-14T05:19:51.215Z,52.13
2019-05-14T05:24:49.267Z,51.73
2019-05-14T05:29:51.729Z,50.60
2019-05-14T05:34:54.208Z,50.94
2019-05-14T05:39:58.443Z,50.57
2019-05-14T05:45:00.492Z,49.28
2019-05-14T05:50:02.947Z,49.36
2019-05-14T05:55:05.463Z,48.50
2019-05-14T06:00:09.390Z,43.30
2019-05-14T06:05:10.402Z,39.66
2019-05-14T06:10:12.880Z,38.15
2019-05-14T06:15:15.345Z,36.88
2019-05-14T06:20:18.986Z,35.65
2019-05-14T06:25:21.170Z,36.19
2019-05-14T06:30:31.653Z,33.92
2019-05-14T06:35:34.119Z,32.84
2019-05-14T06:40:39.278Z,33.77
2019-05-14T06:45:39.307Z,33.36
2019-05-14T06:50:41.542Z,32.69
2019-05-14T06:55:44.027Z,31.37
2019-05-14T07:00:46.496Z,30.26
2019-05-14T07:05:49.412Z,29.93
2019-05-14T07:10:51.523Z,30.98
2019-05-14T07:15:53.987Z,29.95
2019-05-14T07:20:58.672Z,30.27
2019-05-14T07:25:59.088Z,30.65
2019-05-14T07:31:01.391Z,29.07
2019-05-14T07:36:03.864Z,28.39
2019-05-14T07:41:08.954Z,29.55
2019-05-14T07:46:08.840Z,28.84
2019-05-14T07:51:11.314Z,29.16
2019-05-14T07:56:13.809Z,27.51
2019-05-14T08:01:18.517Z,28.21
2019-05-14T08:06:19.194Z,27.40
2019-05-14T08:11:21.196Z,27.21
2019-05-14T08:16:23.681Z,27.09
2019-05-14T08:21:28.331Z,26.90
2019-05-14T08:26:29.310Z,24.38
2019-05-14T08:31:31.108Z,15.79
2019-05-14T08:36:33.562Z,9.17
2019-05-14T08:41:38.282Z,6.74
2019-05-14T08:46:39.006Z,6.14
2019-05-14T08:51:40.975Z,5.10
2019-05-14T08:56:43.434Z,4.49
2019-05-14T09:02:00.876Z,4.25
2019-05-14T09:06:48.890Z,4.16
2019-05-14T09:11:50.841Z,4.85
2019-05-14T09:16:53.440Z,3.85
2019-05-14T09:21:58.622Z,4.14
2019-05-14T09:26:59.255Z,8.74
2019-05-14T09:32:00.933Z,11.73
2019-05-14T09:37:03.363Z,7.22
2019-05-14T09:42:07.954Z,9.53
2019-05-14T09:47:08.691Z,12.94
2019-05-14T09:52:10.652Z,15.24
2019-05-14T09:57:13.141Z,10.06
2019-05-14T10:02:15.564Z,4.87
2019-05-14T10:07:18.013Z,7.30
2019-05-14T10:12:20.502Z,9.84
2019-05-14T10:17:22.993Z,8.69
2019-05-14T10:22:25.446Z,12.69
2019-05-14T10:27:28.454Z,14.68
2019-05-14T10:32:30.379Z,15.42
2019-05-14T10:37:32.862Z,16.53
2019-05-14T10:42:35.344Z,17.15
2019-05-14T10:47:38.870Z,18.28
2019-05-14T10:52:40.292Z,17.95
2019-05-14T10:57:42.750Z,18.11
2019-05-14T11:02:45.225Z,19.50
2019-05-14T11:07:48.336Z,20.34
2019-05-14T11:12:52.788Z,19.83
2019-05-14T11:17:52.619Z,17.03
2019-05-14T11:22:55.080Z,19.05
2019-05-14T11:27:58.670Z,20.42
2019-05-14T11:33:00.023Z,18.31
2019-05-14T11:38:02.517Z,14.34
2019-05-14T11:43:05.056Z,9.63
2019-05-14T11:48:08.899Z,8.43
2019-05-14T11:53:10.040Z,7.29
2019-05-14T11:58:12.502Z,5.86
2019-05-14T12:03:15.028Z,8.60
2019-05-14T12:08:18.560Z,13.82
2019-05-14T12:13:19.986Z,16.99
2019-05-14T12:18:22.443Z,17.58
2019-05-14T12:23:24.903Z,17.90
2019-05-14T12:28:29.181Z,14.95
2019-05-14T12:33:31.418Z,16.32
2019-05-14T12:38:32.303Z,8.99
2019-05-14T12:43:34.782Z,8.03
2019-05-14T12:48:38.960Z,8.73
2019-05-14T12:53:39.805Z,13.13
2019-05-14T12:58:45.708Z,14.45
2019-05-14T13:03:44.594Z,18.24
2019-05-14T13:08:49.130Z,18.95
2019-05-14T13:13:49.655Z,17.73
2019-05-14T13:18:52.112Z,20.53
2019-05-14T13:23:54.566Z,22.90
2019-05-14T13:28:58.955Z,21.45
2019-05-14T13:33:59.703Z,20.43
2019-05-14T13:39:02.016Z,19.51
2019-05-14T13:44:18.449Z,22.25
2019-05-14T13:49:06.975Z,21.28
2019-05-14T13:54:09.433Z,20.67
2019-05-14T13:59:11.942Z,18.03
2019-05-14T14:04:15.254Z,17.72
2019-05-14T14:09:16.888Z,19.04
2019-05-14T14:14:20.093Z,19.57
2019-05-14T14:19:21.846Z,22.05
2019-05-14T14:24:24.319Z,23.00
2019-05-14T14:29:26.774Z,23.32
2019-05-14T14:34:29.247Z,23.20
2019-05-14T14:39:31.738Z,22.78
2019-05-14T14:44:34.311Z,21.94
2019-05-14T14:49:42.274Z,21.12
2019-05-14T14:54:39.365Z,22.04
2019-05-14T14:59:41.824Z,22.80
2019-05-14T15:04:44.316Z,23.66
2019-05-14T15:09:48.735Z,24.60
2019-05-14T15:14:49.281Z,24.22
2019-05-14T15:19:51.755Z,24.73
2019-05-14T15:24:55.145Z,24.26
2019-05-14T15:29:59.375Z,22.78
2019-05-14T15:35:00.108Z,23.64
2019-05-14T15:45:04.347Z,25.23
2019-05-14T15:50:09.168Z,25.16
2019-05-14T15:55:09.405Z,24.78
2019-05-14T16:00:11.899Z,24.81
2019-05-14T16:05:14.344Z,24.57
2019-05-14T16:10:16.844Z,25.24
2019-05-14T16:15:19.318Z,25.84
2019-05-14T16:20:21.803Z,26.20
2019-05-14T16:25:24.300Z,26.18
2019-05-14T16:30:28.951Z,25.74
2019-05-14T16:35:29.272Z,26.19
2019-05-14T16:40:31.746Z,25.83
2019-05-14T16:45:34.204Z,25.97
2019-05-14T16:50:36.677Z,26.39
2019-05-14T16:55:39.136Z,26.70
2019-05-14T17:00:41.621Z,27.14
2019-05-14T17:05:44.080Z,27.69
2019-05-14T17:10:48.239Z,27.78
2019-05-14T17:15:49.020Z,27.94
2019-05-14T17:20:51.529Z,27.94
2019-05-14T17:25:54.002Z,28.10
2019-05-14T17:30:56.453Z,27.80
2019-05-14T17:35:59.057Z,28.04
2019-05-14T17:41:01.390Z,28.21
2019-05-14T17:46:03.882Z,28.69
2019-05-14T17:51:09.129Z,28.91
2019-05-14T17:56:08.834Z,29.25
2019-05-14T18:01:11.317Z,29.26
2019-05-14T18:06:14.045Z,29.51
2019-05-14T18:11:18.943Z,29.72
2019-05-14T18:16:19.353Z,30.13
2019-05-14T18:21:21.472Z,30.77
2019-05-14T18:26:23.959Z,31.12
2019-05-14T18:31:26.475Z,31.54
2019-05-14T18:36:28.948Z,31.99
2019-05-14T18:41:31.417Z,32.14
2019-05-14T18:46:33.879Z,32.19
2019-05-14T18:51:36.375Z,32.24
2019-05-14T18:56:38.872Z,32.22
2019-05-14T19:01:41.329Z,32.49
2019-05-14T19:06:43.819Z,32.66
2019-05-14T19:11:48.216Z,33.05
2019-05-14T19:16:49.125Z,33.35
2019-05-14T19:21:51.268Z,33.35
2019-05-14T19:26:53.775Z,33.87
2019-05-14T19:31:56.236Z,34.29
2019-05-14T19:36:58.746Z,34.56
2019-05-14T19:42:01.230Z,34.76
2019-05-14T19:47:03.923Z,35.00
2019-05-14T19:52:08.238Z,35.57
2019-05-14T19:57:09.949Z,36.12
2019-05-14T20:02:11.471Z,36.97
2019-05-14T20:07:13.939Z,37.13
2019-05-14T20:12:18.238Z,37.13
2019-05-14T20:17:19.511Z,37.52
2019-05-14T20:22:21.352Z,37.40
2019-05-14T20:27:23.814Z,37.40
2019-05-14T20:32:26.282Z,37.63
2019-05-14T20:37:29.192Z,37.78
2019-05-14T20:42:31.297Z,37.76
2019-05-14T20:47:33.776Z,38.17
2019-05-14T20:52:36.239Z,38.30
2019-05-14T20:57:38.851Z,38.84
2019-05-14T21:02:41.170Z,38.90
2019-05-14T21:07:43.878Z,38.93
2019-05-14T21:12:48.671Z,39.41
2019-05-14T21:17:50.445Z,39.75
2019-05-14T21:22:51.080Z,40.03
2019-05-14T21:27:53.529Z,40.21
2019-05-14T21:32:56.056Z,40.34
2019-05-14T21:37:59.296Z,40.62
2019-05-14T21:43:00.967Z,40.53
2019-05-14T21:48:03.480Z,40.70
2019-05-14T21:53:08.207Z,41.47
2019-05-14T21:58:09.064Z,42.14
2019-05-14T22:03:10.893Z,42.69
2019-05-14T22:08:13.421Z,42.94
2019-05-14T22:13:18.064Z,43.63
2019-05-14T22:18:20.691Z,44.15
2019-05-14T22:23:21.200Z,44.77
2019-05-14T22:28:23.310Z,45.61
2019-05-14T22:33:25.776Z,46.36
2019-05-14T22:38:29.300Z,46.71
2019-05-14T22:43:30.683Z,46.93
2019-05-14T22:48:33.143Z,47.62
2019-05-14T22:53:35.624Z,47.59
2019-05-14T22:58:38.498Z,48.38
2019-05-14T23:03:40.561Z,48.39
2019-05-14T23:08:43.003Z,49.41
2019-05-14T23:13:45.449Z,49.80
2019-05-14T23:18:48.755Z,50.21
2019-05-14T23:23:50.600Z,51.50
2019-05-14T23:28:53.052Z,52.28
2019-05-14T23:33:55.509Z,52.48
2019-05-14T23:38:59.089Z,53.28
2019-05-14T23:44:00.399Z,53.12
2019-05-14T23:49:02.858Z,53.61
2019-05-14T23:54:05.320Z,53.67
2019-05-14T23:59:09.365Z,54.30
